My Meet Scores
Reagan Giorgetti, IGI Gymnastics - MyMeetScores.com
Top100 | Top Teams | Upcoming Meets | Completed Meets | Latest | Add Scores | Help| Support | Bookmark and Share

Reagan Giorgetti, IGI Gymnastics
Personal Bests
LevelVault BarsBeamFloorAA
39.4509.325 9.0759.50036.875
48.6009.050 9.1758.95035.475
58.5257.500 8.7008.40033.100
Meet Scores
Date Meet Team Session Level Division Vault Bars Beam Floor AA
2021-01-23 2021 UGA Invitational IGI Gymnastics 3A 5 JrB 8.000 11 7.350 10 7.700 11 7.750 12 30.800 11
2021-01-14 2021 Bravo Classic IGI Gymnastics 9 5 Jr 8.500 15T 7.500 15 8.700 13 8.400 16 33.100 15
2020-12-04 Flipstar's Home for the Holidays IGI Gymnastics 17 5 All 8.525 8 6.600 9 8.300 7 7.950 8 31.375 9
2020-03-06 Illinois Level 4 State Championships Premier Gymnastics Academy 4 4 Youth E 8.575 24 8.675 18T 9.175 18 8.950 17T 35.375 21
2020-02-28 MEGA Spring Invite 2020 Premier Gymnastics Academy 4 4 Junior 8.500 20 8.800 14 8.875 15 8.650 19T 34.825 14
2020-02-21 Great Western Invitational - Women's Premier Gymnastics Academy 05 4 Cowgirl 8.025 14 8.800 8 9.000 11 8.875 12 34.700 11
2020-01-31 Wisconsin Dells Gymnastics Vacation Classic Premier Gymnastics Academy 2 4 Junior B 7.925 13 8.550 8T 8.700 9T 8.650 7T 33.825 9
2020-01-24 Uga Invitational Premier Gymnastics Academy B4 4 Jr A 8.600 12 9.050 11 9.150 6 8.675 9 35.475 8
2019-12-20 Aspire Classic - 2019 Premier Gymnastics Academy 7A 4 Middle 8.250 12 8.300 17 9.000 13T 8.575 14 34.125 15
2019-03-08 2019 Illinois Level 3 State Championship Premier Gymnastics Academy 6 3 Youth E 9.450 14T 9.250 11T 8.675 19T 9.500 7 36.875 15
2019-02-22 Great Western Invitational - Women's Premier Gymnastics Academy 05 3 Cowgirl 9.250 6T 9.150 12 8.700 13T 9.275 6T 36.375 8
2019-02-01 Wisconsin Dells Gymnastics Vacation Classic Premier Gymnastics Academy B5 3 Jr B 9.125 11 9.325 1 8.925 2T 9.350 4T 36.725 1
2018-12-14 2018 Aspire Classic Premier Gymnastics Academy 10A 3 Middle 8.500 17T 9.125 27T 8.525 18 9.350 19T 35.500 15
2018-11-17 Paul Hamm Thanksgiving Class WOMENS Premier Gymnastics Academy 2 3 Middle 9.050 11T 8.950 12 9.075 6T 8.675 22 35.750 11T
2018-02-23 Kinetic Classic Flipstar Gymnastics Academy 4 3 Younger 8.200 90T 8.450 85T 7.600 92 9.050 64 33.300 89
2018-02-16 Big Classic Flipstar Gymnastics Academy 6B 3 Child A 8.500 13 8.100 14 8.225 14 8.850 10 33.675 12
2018-02-09 IGI Chicago Style Gymnastics Meet Flipstar Gymnastics Academy 42 3 631 LaSalle L3 A 8.300 22 8.100 20 8.425 15 8.950 11 33.775 19
2018-01-26 King Arthur Invitational Flipstar Gymnastics Academy 5 3 JRA 7.750 26 8.350 20 8.475 20T 8.100 22T 32.675 24
2017-12-08 Horton Invite At IWU Shirk Center Flipstar Gymnastics Academy All 3 Chr B 8.500 21T 8.000 19T 8.150 20T 8.275 16 32.925 18
2017-11-17 SCGA Classic Flipstar Gymnastics Academy 1 3 JrA 8.100 16 8.025 12 7.300 14 8.475 11 31.900 14
2017-11-10 Illinois NAWGJ Judges Cup 2017 Flipstar Gymnastics Academy S6 3 All Ages 8.800 55T 7.000 62T 7.500 53 8.575 54 31.875 58
Get your scores on
a t-shirt, pin, or hoodie

www.lazysuits.com